Cruz Bay, VI

7:11 PM AST on July 03, 2015 (GMT -0400)
Chocolate Hole | | Change Station
CLOSE
Current Station
Personal Weather Station
Location: St. John, ST. JOHN
Elevation: 300 ft
Nearby Weather Stations

Elev 300 ft 18.32 °N, 64.78 °W | Updated 14 seconds ago

Overcast
Overcast
81.1 °F
Feels Like 86 °F
N
1.3
Wind Variable Wind from ENE
Gusts 2.5 mph

Today
High -- | Low -- °F
--% Chance of Precip.
Yesterday
High -- | Low -- °F
Precip. -- in
5:47 AM 6:59 PM
Waning Gibbous, 95% visible
Pressure 30.04 in
Visibility 10.0 miles
Clouds Overcast 2300 ft
Heat Index 86 °F
Dew Point 73 °F
Humidity 76%
Rainfall 0.02 in
Snow Depth Not available.
UV 0.0 out of 12
Pollen Not available.
Air Quality Not available.
Flu Activity Not available.
METAR TIST 032253Z 08017G23KT 10SM OVC023 29/22 A3003 RMK AO2 SLP171 T02890222

More Conditions Fewer Conditions

Pressure 30.04 in
Visibility 10.0 miles
Clouds Overcast 2300 ft
Heat Index 86 °F
Dew Point 73 °F
Humidity 76%
Rainfall 0.02 in
Snow Depth Not available.
UV 0.0 out of 12
Pollen Not available.
Air Quality Not available.
Flu Activity Not available.
METAR TIST 032253Z 08017G23KT 10SM OVC023 29/22 A3003 RMK AO2 SLP171 T02890222

More Conditions Fewer Conditions

10-Day Weather Forecast

×

Almanac

Astronomy

Jul. 03, 2015 Rise Set
Actual Time
Civil Twilight
Nautical Twilight
Astronomical Twilight
Moon
Length of Visible Light
Length of Day
Tomorrow will be .
, % of the Moon is Illuminated

Today's Extremes

State Highs State Lows

Community

WunderPhotos

Upload Photos

1,834,819 photos uploaded!

WunderBlogs® & News

Nearby

Air Quality

  Air Quality AQ Index Pollutant
Not available.

Snow Depth

Station Depth Elevation

Earthquake Activity

City Distance Mag. Time & Date
Minimum magnitude displayed is 2.5.

Coastal Water Temperatures

Place Temperature

Stations

Nearby Weather Stations

Station Location Temp. Windchill Dew Point Humidity Wind Precip. Elev Updated Type